Time;durP1;ratioP1;P1;durP2;ratioP2;P2;SDS_P1;SDS_P2;PMS_P1;PMS_P2;Temp;Humidity;BMP_temperature;BMP_pressure;BME280_temperature;BME280_humidity;BME280_pressure;Samples;Min_cycle;Max_cycle;Signal;HPM_P1;HPM_P2
2023/10/12 00:00:42;;;;;;;11.20;2.25;;;;;;;;;;5076856;28;20033;-79
2023/10/12 00:03:12;;;;;;;13.23;2.03;;;;;;;;;;5071298;28;20070;-82
2023/10/12 00:05:41;;;;;;;11.73;2.22;;;;;;;;;;5070664;28;20028;-81
2023/10/12 00:08:10;;;;;;;9.60;1.70;;;;;;;;;;5076292;28;20447;-81
2023/10/12 00:10:44;;;;;;;6.55;2.13;;;;;;;;;;5076611;28;20060;-80
2023/10/12 00:13:11;;;;;;;8.57;1.73;;;;;;;;;;5075184;28;20055;-81
2023/10/12 00:15:47;;;;;;;9.95;2.05;;;;;;;;;;5072011;28;20059;-79
2023/10/12 00:18:17;;;;;;;12.73;2.08;;;;;;;;;;5074424;28;20267;-81
2023/10/12 00:20:51;;;;;;;12.20;3.42;;;;;;;;;;5075205;28;20470;-80
2023/10/12 00:23:17;;;;;;;10.25;1.98;;;;;;;;;;5076744;28;20025;-81
2023/10/12 00:25:47;;;;;;;8.57;1.90;;;;;;;;;;5090139;28;20430;-81
2023/10/12 00:28:20;;;;;;;15.00;2.25;;;;;;;;;;5075275;28;20032;-81
2023/10/12 00:30:47;;;;;;;15.70;1.80;;;;;;;;;;5072459;28;20037;-80
2023/10/12 00:33:13;;;;;;;15.85;2.28;;;;;;;;;;5076742;28;20482;-81
2023/10/12 00:35:39;;;;;;;9.30;1.73;;;;;;;;;;5091692;28;20044;-80
2023/10/12 00:38:18;;;;;;;10.85;1.58;;;;;;;;;;5076599;28;20128;-81
2023/10/12 00:40:55;;;;;;;14.75;1.95;;;;;;;;;;5076871;28;20454;-82
2023/10/12 00:43:22;;;;;;;13.40;1.88;;;;;;;;;;5069329;28;20063;-80
2023/10/12 00:45:49;;;;;;;12.30;2.05;;;;;;;;;;5062679;28;20031;-81
2023/10/12 00:48:16;;;;;;;14.40;3.13;;;;;;;;;;5072599;28;20032;-81
2023/10/12 00:50:47;;;;;;;11.35;2.47;;;;;;;;;;5073151;28;20024;-81
2023/10/12 00:55:43;;;;;;;11.52;2.00;;;;;;;;;;5073917;28;20040;-81
2023/10/12 00:58:09;;;;;;;10.85;2.63;;;;;;;;;;5066442;28;20283;-81
2023/10/12 01:00:37;;;;;;;10.02;1.92;;;;;;;;;;5070361;28;20029;-82
2023/10/12 01:08:42;;;;;;;16.13;2.63;;;;;;;;;;5070080;28;20032;-82
2023/10/12 01:11:08;;;;;;;11.93;2.08;;;;;;;;;;5071862;28;20036;-83
2023/10/12 01:13:34;;;;;;;16.13;2.10;;;;;;;;;;5065906;28;20485;-82
2023/10/12 01:16:07;;;;;;;10.98;3.05;;;;;;;;;;5069939;28;20492;-83
2023/10/12 01:18:34;;;;;;;14.77;2.05;;;;;;;;;;5072469;28;20058;-78
2023/10/12 01:21:03;;;;;;;11.13;2.00;;;;;;;;;;5072918;28;20086;-85
2023/10/12 01:23:30;;;;;;;12.40;1.73;;;;;;;;;;5068976;28;20028;-79
2023/10/12 01:26:09;;;;;;;13.02;3.30;;;;;;;;;;5063112;28;20605;-81
2023/10/12 01:28:35;;;;;;;9.68;2.08;;;;;;;;;;5068602;28;20115;-78
2023/10/12 01:31:03;;;;;;;15.30;2.53;;;;;;;;;;5071822;28;20533;-81
2023/10/12 01:33:30;;;;;;;18.50;2.70;;;;;;;;;;5070621;28;20050;-80
2023/10/12 01:35:56;;;;;;;15.50;5.75;;;;;;;;;;5069884;28;20508;-76
2023/10/12 01:38:22;;;;;;;12.45;2.60;;;;;;;;;;5064339;28;20456;-78
2023/10/12 01:43:17;;;;;;;13.27;3.20;;;;;;;;;;5069144;28;20063;-77
2023/10/12 01:45:43;;;;;;;12.95;3.08;;;;;;;;;;5069163;28;20120;-80
2023/10/12 01:48:16;;;;;;;11.63;2.30;;;;;;;;;;5064625;28;20482;-79
2023/10/12 01:50:43;;;;;;;14.55;2.85;;;;;;;;;;5071580;28;20058;-80
2023/10/12 01:53:32;;;;;;;15.32;2.33;;;;;;;;;;5072133;28;20066;-80
2023/10/12 01:55:59;;;;;;;18.33;3.20;;;;;;;;;;5070664;28;20036;-80
2023/10/12 01:58:27;;;;;;;9.00;1.77;;;;;;;;;;5070253;28;20025;-80
2023/10/12 02:01:04;;;;;;;16.13;3.72;;;;;;;;;;5066701;28;20418;-81
2023/10/12 02:06:00;;;;;;;10.80;1.80;;;;;;;;;;5070001;28;20497;-78
2023/10/12 02:08:32;;;;;;;11.77;2.78;;;;;;;;;;5071577;28;20028;-79
2023/10/12 02:13:36;;;;;;;9.35;2.00;;;;;;;;;;5070164;28;20048;-78
2023/10/12 02:16:12;;;;;;;16.10;4.55;;;;;;;;;;5070062;28;20024;-80
2023/10/12 02:18:38;;;;;;;15.80;3.10;;;;;;;;;;5058650;28;20109;-80
2023/10/12 02:21:20;;;;;;;15.40;2.67;;;;;;;;;;5061454;28;20116;-81
2023/10/12 02:23:57;;;;;;;13.15;2.10;;;;;;;;;;5066832;28;20386;-79
2023/10/12 02:26:36;;;;;;;12.27;2.80;;;;;;;;;;5067408;28;20118;-80
2023/10/12 02:31:38;;;;;;;9.60;2.10;;;;;;;;;;5061531;28;20052;-79
2023/10/12 02:34:05;;;;;;;17.73;2.60;;;;;;;;;;5064199;28;20047;-81
2023/10/12 02:36:31;;;;;;;13.27;2.45;;;;;;;;;;5070522;28;20052;-78
2023/10/12 02:38:59;;;;;;;12.25;2.20;;;;;;;;;;5067547;28;20129;-80
2023/10/12 02:41:26;;;;;;;11.68;1.80;;;;;;;;;;5066270;28;20115;-78
2023/10/12 02:43:55;;;;;;;11.07;2.35;;;;;;;;;;5066242;28;20355;-77
2023/10/12 02:46:22;;;;;;;11.15;1.63;;;;;;;;;;5066899;28;20078;-80
2023/10/12 02:48:50;;;;;;;12.90;2.15;;;;;;;;;;5066187;28;20032;-79
2023/10/12 02:51:17;;;;;;;9.15;1.88;;;;;;;;;;5069609;28;20016;-81
2023/10/12 02:53:44;;;;;;;14.68;2.75;;;;;;;;;;5066918;28;20040;-82
2023/10/12 02:56:11;;;;;;;13.25;2.40;;;;;;;;;;5068085;28;20037;-81
2023/10/12 02:58:37;;;;;;;10.82;1.92;;;;;;;;;;5070455;28;20036;-81
2023/10/12 03:01:18;;;;;;;17.45;7.75;;;;;;;;;;5068754;28;20075;-77
2023/10/12 03:03:54;;;;;;;8.57;2.70;;;;;;;;;;5065620;28;20062;-80
2023/10/12 03:06:24;;;;;;;10.30;2.67;;;;;;;;;;5064071;28;20082;-79
2023/10/12 03:11:26;;;;;;;13.55;1.80;;;;;;;;;;5069812;28;20041;-80
2023/10/12 03:16:41;;;;;;;10.20;1.75;;;;;;;;;;5066561;28;20028;-79
2023/10/12 03:19:18;;;;;;;17.13;2.20;;;;;;;;;;5071049;28;20086;-79
2023/10/12 03:21:47;;;;;;;16.33;2.35;;;;;;;;;;5067919;28;20040;-82
2023/10/12 03:24:16;;;;;;;6.20;1.48;;;;;;;;;;5057690;28;20059;-80
2023/10/12 03:26:48;;;;;;;10.23;1.63;;;;;;;;;;5067139;28;20028;-81
2023/10/12 03:32:04;;;;;;;9.45;1.63;;;;;;;;;;5063571;28;20502;-81
2023/10/12 03:34:35;;;;;;;13.45;2.35;;;;;;;;;;5066197;28;20064;-80
2023/10/12 03:37:04;;;;;;;7.30;1.77;;;;;;;;;;5080277;28;20079;-82
2023/10/12 03:39:31;;;;;;;4.68;1.35;;;;;;;;;;5068326;28;20143;-82
2023/10/12 03:47:32;;;;;;;14.30;2.30;;;;;;;;;;5069598;28;20048;-81
2023/10/12 03:49:58;;;;;;;11.93;2.10;;;;;;;;;;5054538;28;20032;-81
2023/10/12 03:53:15;;;;;;;10.77;2.80;;;;;;;;;;5055925;28;20685;-81
2023/10/12 03:55:49;;;;;;;10.38;1.83;;;;;;;;;;5055768;28;20044;-82
2023/10/12 03:58:06;;;;;;;8.10;1.77;;;;;;;;;;5067554;28;20032;-82
2023/10/12 04:01:05;;;;;;;10.13;1.60;;;;;;;;;;5060809;28;20481;-78
2023/10/12 04:03:37;;;;;;;8.10;1.70;;;;;;;;;;5065590;28;20060;-82
2023/10/12 04:06:15;;;;;;;10.45;2.63;;;;;;;;;;5069609;28;20381;-80
2023/10/12 04:11:51;;;;;;;13.25;1.63;;;;;;;;;;5063959;28;20466;-81
2023/10/12 04:17:09;;;;;;;11.82;2.10;;;;;;;;;;5070305;28;20067;-81
2023/10/12 04:19:40;;;;;;;8.32;1.60;;;;;;;;;;5065210;28;20021;-80
2023/10/12 04:22:23;;;;;;;11.18;2.03;;;;;;;;;;5062733;28;20025;-81
2023/10/12 04:24:54;;;;;;;6.10;2.78;;;;;;;;;;5063761;28;20044;-80
2023/10/12 04:29:50;;;;;;;12.48;2.33;;;;;;;;;;5071412;28;20145;-80
2023/10/12 04:32:27;;;;;;;10.30;2.00;;;;;;;;;;5070474;28;20363;-79
2023/10/12 04:34:54;;;;;;;10.82;1.88;;;;;;;;;;5073249;28;20047;-77
2023/10/12 04:37:26;;;;;;;15.32;1.92;;;;;;;;;;5069438;28;20065;-79
2023/10/12 04:39:56;;;;;;;8.60;2.10;;;;;;;;;;5071298;28;20040;-78
2023/10/12 04:42:34;;;;;;;12.80;2.20;;;;;;;;;;5071803;28;20462;-79
2023/10/12 04:45:23;;;;;;;14.38;2.78;;;;;;;;;;5065611;28;20051;-81
2023/10/12 04:47:55;;;;;;;9.95;2.85;;;;;;;;;;5055355;28;20041;-80
2023/10/12 04:50:36;;;;;;;15.05;3.60;;;;;;;;;;5069109;28;20497;-81
2023/10/12 04:53:09;;;;;;;15.77;2.40;;;;;;;;;;5054076;28;20056;-82
2023/10/12 04:55:35;;;;;;;;;;;;;;;;;;5068980;28;20029;-81
2023/10/12 04:58:17;;;;;;;12.10;2.55;;;;;;;;;;5072795;28;19908;-82
2023/10/12 05:00:49;;;;;;;14.35;2.58;;;;;;;;;;5072179;28;20020;-82
2023/10/12 05:03:26;;;;;;;16.27;3.10;;;;;;;;;;5072457;28;20028;-82
2023/10/12 05:06:04;;;;;;;11.32;2.40;;;;;;;;;;5071407;28;20115;-82
2023/10/12 05:08:31;;;;;;;14.07;2.50;;;;;;;;;;5058236;28;20074;-83
2023/10/12 05:10:58;;;;;;;12.25;3.15;;;;;;;;;;5072561;28;20492;-83
2023/10/12 05:13:24;;;;;;;8.35;1.90;;;;;;;;;;5071558;28;22852;-82
2023/10/12 05:16:14;;;;;;;7.38;1.95;;;;;;;;;;5072420;28;20044;-81
2023/10/12 05:18:37;;;;;;;9.45;2.10;;;;;;;;;;5073247;28;20036;-82
2023/10/12 05:21:08;;;;;;;10.82;2.10;;;;;;;;;;5072240;28;20131;-80
2023/10/12 05:23:34;;;;;;;8.23;1.80;;;;;;;;;;5072510;28;20500;-81
2023/10/12 05:28:27;;;;;;;10.18;2.22;;;;;;;;;;5069442;28;20032;-80
2023/10/12 05:31:20;;;;;;;13.40;1.55;;;;;;;;;;5071535;28;20036;-79
2023/10/12 05:34:00;;;;;;;;;;;;;;;;;;5071425;28;20831;-79
2023/10/12 05:36:28;;;;;;;11.95;1.90;;;;;;;;;;5078407;28;20361;-81
2023/10/12 05:39:11;;;;;;;6.45;1.73;;;;;;;;;;5084167;28;20048;-82
2023/10/12 05:41:37;;;;;;;9.98;2.10;;;;;;;;;;5068359;28;20048;-82
2023/10/12 05:44:08;;;;;;;14.68;2.22;;;;;;;;;;5066786;28;20067;-78
2023/10/12 05:46:35;;;;;;;10.10;2.53;;;;;;;;;;5069501;28;20024;-81
2023/10/12 05:49:02;;;;;;;14.55;3.13;;;;;;;;;;5071792;28;20486;-81
2023/10/12 05:51:28;;;;;;;7.63;2.08;;;;;;;;;;5072013;28;20024;-80
2023/10/12 05:54:06;;;;;;;8.25;2.33;;;;;;;;;;5069883;28;20059;-81
2023/10/12 05:56:35;;;;;;;7.50;2.10;;;;;;;;;;5070065;28;20036;-81
2023/10/12 05:59:04;;;;;;;11.48;2.05;;;;;;;;;;5063733;28;20037;-82
2023/10/12 06:01:33;;;;;;;9.05;1.75;;;;;;;;;;5066974;28;20028;-83
2023/10/12 06:03:59;;;;;;;7.53;2.00;;;;;;;;;;5059840;28;20040;-82
2023/10/12 06:06:25;;;;;;;15.10;1.88;;;;;;;;;;5082525;28;20035;-81
2023/10/12 06:08:54;;;;;;;12.52;1.83;;;;;;;;;;5070884;28;20521;-81
2023/10/12 06:11:26;;;;;;;11.13;2.03;;;;;;;;;;5058577;28;20029;-81
2023/10/12 06:13:57;;;;;;;9.23;1.90;;;;;;;;;;5084202;28;20115;-85
2023/10/12 06:16:25;;;;;;;14.02;2.10;;;;;;;;;;5068407;28;20187;-79
2023/10/12 06:18:54;;;;;;;10.50;1.73;;;;;;;;;;5066077;28;20475;-77
2023/10/12 06:21:20;;;;;;;9.48;2.63;;;;;;;;;;5067874;28;20401;-77
2023/10/12 06:23:50;;;;;;;6.15;1.95;;;;;;;;;;5068728;28;20033;-83
2023/10/12 06:26:28;;;;;;;13.52;2.60;;;;;;;;;;5085822;28;20039;-77
2023/10/12 06:29:01;;;;;;;5.78;2.20;;;;;;;;;;5064963;28;20054;-81
2023/10/12 06:31:29;;;;;;;7.75;1.92;;;;;;;;;;5069081;28;20032;-79
2023/10/12 06:33:56;;;;;;;9.00;1.70;;;;;;;;;;5068968;28;20021;-79
2023/10/12 06:36:22;;;;;;;7.22;1.70;;;;;;;;;;5070653;28;20040;-81
2023/10/12 06:46:46;;;;;;;8.90;1.73;;;;;;;;;;5069310;28;20032;-81
2023/10/12 06:49:21;;;;;;;4.45;2.03;;;;;;;;;;5070841;28;20363;-82
2023/10/12 06:52:00;;;;;;;24.63;2.55;;;;;;;;;;5056375;28;20143;-81
2023/10/12 06:54:33;;;;;;;7.75;2.20;;;;;;;;;;5066538;28;20478;-80
2023/10/12 07:02:30;;;;;;;15.32;2.58;;;;;;;;;;5068163;28;20028;-85
2023/10/12 07:05:00;;;;;;;42.92;19.70;;;;;;;;;;5067468;28;20040;-83
2023/10/12 07:07:46;;;;;;;15.77;2.83;;;;;;;;;;5064325;28;20032;-81
2023/10/12 07:12:50;;;;;;;10.65;2.50;;;;;;;;;;5070334;28;20421;-81
2023/10/12 07:15:22;;;;;;;10.68;3.08;;;;;;;;;;5054399;28;20107;-79
2023/10/12 07:17:51;;;;;;;11.65;2.10;;;;;;;;;;5067601;28;20025;-78
2023/10/12 07:23:14;;;;;;;18.15;3.83;;;;;;;;;;5057779;28;20036;-81
2023/10/12 07:25:43;;;;;;;8.25;2.00;;;;;;;;;;5063732;28;20064;-76
2023/10/12 07:28:16;;;;;;;71.88;35.85;;;;;;;;;;5069171;28;20569;-76
2023/10/12 07:33:29;;;;;;;12.90;3.22;;;;;;;;;;5064619;28;20039;-80
2023/10/12 07:35:57;;;;;;;11.85;3.05;;;;;;;;;;5064972;28;20065;-80
2023/10/12 07:38:34;;;;;;;12.75;2.40;;;;;;;;;;5065863;28;20046;-81
2023/10/12 07:41:01;;;;;;;12.80;2.13;;;;;;;;;;5071435;28;20059;-82
2023/10/12 07:43:32;;;;;;;18.55;3.25;;;;;;;;;;5061315;28;20477;-81
2023/10/12 07:46:21;;;;;;;11.00;1.95;;;;;;;;;;5059868;28;20077;-82
2023/10/12 07:48:47;;;;;;;7.22;1.80;;;;;;;;;;5067381;28;20469;-86
2023/10/12 07:51:24;;;;;;;12.70;1.98;;;;;;;;;;5067423;28;20040;-82
2023/10/12 07:53:57;;;;;;;10.13;1.92;;;;;;;;;;5069926;28;20032;-82
2023/10/12 07:56:23;;;;;;;11.38;2.22;;;;;;;;;;5070847;28;20036;-84
2023/10/12 07:58:58;;;;;;;12.95;2.38;;;;;;;;;;5074469;28;20107;-83
2023/10/12 08:03:58;;;;;;;10.85;2.95;;;;;;;;;;5074321;28;20367;-83
2023/10/12 08:06:57;;;;;;;14.57;1.70;;;;;;;;;;5073828;28;20044;-83
2023/10/12 08:11:53;;;;;;;12.75;1.85;;;;;;;;;;5064839;28;20101;-82
2023/10/12 08:14:41;;;;;;;6.68;1.85;;;;;;;;;;5056238;28;20395;-83
2023/10/12 08:20:43;;;;;;;12.57;2.25;;;;;;;;;;5073795;28;20042;-82
2023/10/12 08:22:42;;;;;;;11.30;1.75;;;;;;;;;;5054456;28;20041;-82
2023/10/12 08:25:08;;;;;;;9.48;2.30;;;;;;;;;;5069883;28;20028;-83
2023/10/12 08:27:54;;;;;;;6.53;1.40;;;;;;;;;;5073685;28;20102;-83
2023/10/12 08:30:23;;;;;;;8.93;1.55;;;;;;;;;;5073701;28;20021;-84
2023/10/12 08:33:09;;;;;;;17.95;4.53;;;;;;;;;;5067842;28;20028;-77
2023/10/12 08:38:36;;;;;;;17.33;3.08;;;;;;;;;;5059412;28;20053;-79
2023/10/12 08:44:00;;;;;;;7.43;1.55;;;;;;;;;;5044317;28;20064;-81
2023/10/12 08:54:42;;;;;;;7.25;1.52;;;;;;;;;;5073533;28;20218;-81
2023/10/12 08:57:19;;;;;;;16.90;2.15;;;;;;;;;;5073394;28;20047;-81
2023/10/12 08:59:58;;;;;;;11.27;2.50;;;;;;;;;;5057733;28;20351;-81
2023/10/12 09:02:24;;;;;;;9.98;2.28;;;;;;;;;;5054289;28;20442;-83
2023/10/12 09:04:52;;;;;;;8.38;1.30;;;;;;;;;;5070394;28;20035;-82
2023/10/12 09:07:21;;;;;;;4.22;1.08;;;;;;;;;;5071160;28;20102;-82
2023/10/12 09:10:02;;;;;;;8.20;2.08;;;;;;;;;;5052835;28;20024;-80
2023/10/12 09:12:28;;;;;;;6.47;1.33;;;;;;;;;;5058479;28;20036;-80
2023/10/12 09:14:55;;;;;;;12.25;1.58;;;;;;;;;;5072993;28;20151;-79
2023/10/12 09:17:27;;;;;;;10.60;1.70;;;;;;;;;;5070346;28;20111;-79
2023/10/12 09:20:10;;;;;;;4.85;1.33;;;;;;;;;;5072497;28;20025;-79
2023/10/12 09:22:39;;;;;;;7.40;1.40;;;;;;;;;;5073545;28;20186;-79
2023/10/12 09:25:05;;;;;;;12.80;2.58;;;;;;;;;;5073284;28;20123;-80
2023/10/12 09:27:48;;;;;;;10.90;1.30;;;;;;;;;;5073577;28;20025;-80
2023/10/12 09:30:25;;;;;;;24.17;4.38;;;;;;;;;;5068912;28;20066;-80
2023/10/12 09:33:05;;;;;;;13.13;2.35;;;;;;;;;;5071556;28;20393;-78
2023/10/12 09:35:40;;;;;;;9.45;1.30;;;;;;;;;;5078946;28;20095;-78
2023/10/12 09:38:06;;;;;;;7.93;1.98;;;;;;;;;;5058352;28;20024;-80
2023/10/12 09:40:39;;;;;;;10.13;2.58;;;;;;;;;;5072318;28;20037;-80
2023/10/12 09:43:12;;;;;;;12.93;2.58;;;;;;;;;;5072479;28;20377;-80
2023/10/12 09:45:44;;;;;;;15.50;1.58;;;;;;;;;;5072440;28;20028;-79
2023/10/12 09:48:18;;;;;;;9.70;1.42;;;;;;;;;;5072014;28;20037;-80
2023/10/12 09:50:45;;;;;;;11.27;1.90;;;;;;;;;;5073074;28;20390;-80
2023/10/12 09:53:13;;;;;;;12.38;1.67;;;;;;;;;;5070826;28;20393;-79
2023/10/12 09:55:54;;;;;;;9.07;1.73;;;;;;;;;;5072341;28;20120;-78
2023/10/12 09:58:22;;;;;;;8.70;1.98;;;;;;;;;;5073283;28;20056;-79
2023/10/12 10:01:01;;;;;;;6.47;1.10;;;;;;;;;;5072215;28;20405;-78
2023/10/12 10:03:35;;;;;;;9.95;1.52;;;;;;;;;;5070314;28;20068;-80
2023/10/12 10:06:10;;;;;;;11.18;1.45;;;;;;;;;;5071585;28;20390;-78
2023/10/12 10:08:44;;;;;;;11.77;2.00;;;;;;;;;;5071446;28;20099;-78
2023/10/12 10:11:12;;;;;;;12.77;1.60;;;;;;;;;;5072488;28;20160;-79
2023/10/12 10:13:46;;;;;;;10.45;1.33;;;;;;;;;;5069676;28;20028;-78
2023/10/12 10:16:14;;;;;;;8.70;1.67;;;;;;;;;;5069524;28;20092;-78
2023/10/12 10:18:47;;;;;;;13.05;2.75;;;;;;;;;;5069728;28;20054;-78
2023/10/12 10:21:19;;;;;;;12.95;2.30;;;;;;;;;;5071324;28;20036;-79
2023/10/12 10:23:48;;;;;;;8.73;1.30;;;;;;;;;;5072480;28;20028;-78
2023/10/12 10:26:30;;;;;;;11.75;1.50;;;;;;;;;;5066461;28;20297;-78
2023/10/12 10:29:04;;;;;;;5.53;1.50;;;;;;;;;;5071455;28;20029;-82
2023/10/12 10:31:35;;;;;;;7.25;1.83;;;;;;;;;;5068365;28;20016;-79
2023/10/12 10:34:04;;;;;;;8.40;2.08;;;;;;;;;;5069750;28;20013;-78
2023/10/12 10:36:34;;;;;;;11.60;1.67;;;;;;;;;;5068234;28;20020;-78
2023/10/12 10:39:04;;;;;;;8.05;1.45;;;;;;;;;;5056168;28;20053;-79
2023/10/12 10:44:21;;;;;;;11.27;1.60;;;;;;;;;;5065685;28;20043;-75
2023/10/12 10:46:47;;;;;;;;;;;;;;;;;;5069764;28;20033;-75
2023/10/12 10:49:16;;;;;;;8.73;1.58;;;;;;;;;;5066657;28;19987;-77
2023/10/12 10:52:01;;;;;;;6.80;1.48;;;;;;;;;;5065527;28;20490;-76
2023/10/12 10:54:28;;;;;;;9.50;1.63;;;;;;;;;;5068409;28;20485;-74
2023/10/12 10:56:58;;;;;;;12.93;1.50;;;;;;;;;;5070692;28;20025;-75
2023/10/12 10:59:25;;;;;;;8.65;1.65;;;;;;;;;;5057591;28;20039;-76
2023/10/12 11:01:52;;;;;;;9.00;1.80;;;;;;;;;;5070658;28;20052;-80
2023/10/12 11:04:31;;;;;;;8.48;2.22;;;;;;;;;;5070736;28;20105;-78
2023/10/12 11:06:58;;;;;;;9.43;1.45;;;;;;;;;;5062998;28;20139;-74
2023/10/12 11:09:31;;;;;;;9.73;1.55;;;;;;;;;;5065714;28;20044;-74
2023/10/12 11:12:00;;;;;;;15.55;1.63;;;;;;;;;;5070603;28;20508;-75
2023/10/12 11:14:31;;;;;;;10.20;1.92;;;;;;;;;;5067728;28;20032;-73
2023/10/12 11:16:58;;;;;;;9.88;1.83;;;;;;;;;;5069340;28;20054;-74
2023/10/12 11:19:24;;;;;;;9.10;2.08;;;;;;;;;;5069678;28;20028;-74
2023/10/12 11:21:55;;;;;;;14.18;2.50;;;;;;;;;;5071454;28;20497;-75
2023/10/12 11:24:24;;;;;;;7.32;1.88;;;;;;;;;;5071079;28;20024;-74
2023/10/12 11:26:51;;;;;;;16.10;2.92;;;;;;;;;;5070336;28;20059;-75
2023/10/12 11:29:17;;;;;;;10.82;1.60;;;;;;;;;;5070956;28;20048;-78
2023/10/12 11:31:47;;;;;;;10.45;1.98;;;;;;;;;;5065983;28;20035;-77
2023/10/12 11:34:23;;;;;;;5.85;1.27;;;;;;;;;;5067746;28;20035;-76
2023/10/12 11:36:57;;;;;;;7.40;1.60;;;;;;;;;;5070142;28;20016;-76
2023/10/12 11:39:28;;;;;;;6.43;1.50;;;;;;;;;;5073365;28;20444;-76
2023/10/12 11:42:07;;;;;;;11.25;1.60;;;;;;;;;;5066649;28;20039;-77
2023/10/12 11:44:42;;;;;;;15.20;2.00;;;;;;;;;;5065182;28;20036;-77
2023/10/12 11:47:08;;;;;;;8.80;1.55;;;;;;;;;;5068944;28;20089;-76
2023/10/12 11:49:58;;;;;;;8.63;1.77;;;;;;;;;;5068540;28;20040;-76
2023/10/12 11:52:34;;;;;;;10.68;2.08;;;;;;;;;;5053279;28;20549;-76
2023/10/12 11:55:07;;;;;;;5.68;1.00;;;;;;;;;;5069900;28;20090;-76
2023/10/12 11:57:40;;;;;;;13.20;1.83;;;;;;;;;;5068621;28;20370;-76
2023/10/12 12:00:14;;;;;;;10.18;2.10;;;;;;;;;;5068382;28;20068;-75
2023/10/12 12:02:41;;;;;;;7.47;1.45;;;;;;;;;;5066963;28;20124;-76
2023/10/12 12:05:11;;;;;;;9.00;1.48;;;;;;;;;;5066381;28;20041;-75
2023/10/12 12:07:37;;;;;;;9.77;1.65;;;;;;;;;;5068275;28;20035;-75
2023/10/12 12:10:06;;;;;;;9.57;1.50;;;;;;;;;;5064665;28;20055;-79
2023/10/12 12:12:33;;;;;;;8.02;1.40;;;;;;;;;;5057188;28;20028;-80
2023/10/12 12:14:59;;;;;;;9.13;3.50;;;;;;;;;;5060421;28;20036;-76
2023/10/12 12:17:26;;;;;;;7.40;1.75;;;;;;;;;;5060600;28;20028;-73
2023/10/12 12:19:54;;;;;;;10.02;1.83;;;;;;;;;;5068654;28;20493;-79
2023/10/12 12:22:23;;;;;;;15.80;2.35;;;;;;;;;;5067940;28;20420;-78
2023/10/12 12:24:49;;;;;;;12.57;1.58;;;;;;;;;;5068440;28;20040;-78
2023/10/12 12:30:00;;;;;;;10.43;1.92;;;;;;;;;;5056814;28;20075;-79
2023/10/12 12:32:27;;;;;;;7.13;1.55;;;;;;;;;;5083131;28;20462;-78
2023/10/12 12:34:54;;;;;;;10.57;1.83;;;;;;;;;;5068588;28;20049;-75
2023/10/12 12:37:22;;;;;;;86.00;49.33;;;;;;;;;;5066071;28;20029;-74
2023/10/12 12:40:27;;;;;;;14.80;4.50;;;;;;;;;;5069508;28;20067;-77
2023/10/12 12:42:37;;;;;;;11.85;1.65;;;;;;;;;;5061506;28;20445;-76
2023/10/12 12:45:04;;;;;;;6.55;2.00;;;;;;;;;;5071129;28;20055;-77
2023/10/12 12:47:32;;;;;;;11.38;2.03;;;;;;;;;;5068931;28;20054;-76
2023/10/12 12:50:01;;;;;;;10.13;1.90;;;;;;;;;;5063774;28;20036;-76
2023/10/12 12:52:27;;;;;;;12.07;2.53;;;;;;;;;;5071258;28;20033;-75
2023/10/12 12:54:53;;;;;;;16.27;2.50;;;;;;;;;;5073026;28;20041;-76
2023/10/12 12:57:19;;;;;;;7.88;1.75;;;;;;;;;;5072480;28;20029;-79
2023/10/12 12:59:45;;;;;;;9.15;2.38;;;;;;;;;;5070701;28;20459;-77
2023/10/12 13:02:14;;;;;;;6.75;2.20;;;;;;;;;;5070408;28;20029;-74
2023/10/12 13:04:40;;;;;;;14.70;2.60;;;;;;;;;;5071674;28;20478;-73
2023/10/12 13:07:09;;;;;;;12.88;2.35;;;;;;;;;;5071082;28;20033;-77
2023/10/12 13:09:36;;;;;;;7.13;2.13;;;;;;;;;;5054946;28;20082;-74
2023/10/12 13:12:05;;;;;;;10.95;2.72;;;;;;;;;;5072084;28;20382;-74
2023/10/12 13:14:32;;;;;;;6.25;1.95;;;;;;;;;;5068846;28;20036;-74
2023/10/12 13:16:59;;;;;;;7.55;2.20;;;;;;;;;;5069302;28;20037;-74
2023/10/12 13:19:25;;;;;;;10.55;1.83;;;;;;;;;;5079216;28;20032;-80
2023/10/12 13:21:52;;;;;;;9.40;2.50;;;;;;;;;;5071935;28;20040;-73
2023/10/12 13:24:18;;;;;;;13.18;2.38;;;;;;;;;;5071060;28;20122;-73
2023/10/12 13:26:44;;;;;;;11.82;2.45;;;;;;;;;;5072036;28;20024;-73
2023/10/12 13:29:11;;;;;;;9.40;2.03;;;;;;;;;;5070504;28;20032;-72
2023/10/12 13:31:37;;;;;;;10.40;2.72;;;;;;;;;;5068632;28;20029;-75
2023/10/12 13:34:05;;;;;;;12.00;2.50;;;;;;;;;;5064967;28;20042;-74
2023/10/12 13:36:32;;;;;;;14.95;3.22;;;;;;;;;;5071070;28;20531;-73
2023/10/12 13:38:59;;;;;;;13.25;2.03;;;;;;;;;;5069426;28;20036;-73
2023/10/12 13:41:25;;;;;;;13.68;3.17;;;;;;;;;;5068673;28;20040;-74
2023/10/12 13:43:52;;;;;;;14.27;2.53;;;;;;;;;;5070333;28;20078;-71
2023/10/12 13:46:18;;;;;;;9.35;1.88;;;;;;;;;;5068325;28;20048;-72
2023/10/12 13:48:47;;;;;;;13.35;2.28;;;;;;;;;;5074590;28;20086;-71
2023/10/12 13:51:19;;;;;;;11.68;3.42;;;;;;;;;;5071345;28;20021;-71
2023/10/12 13:53:46;;;;;;;8.85;2.05;;;;;;;;;;5069416;28;20070;-71
2023/10/12 13:56:12;;;;;;;12.90;2.35;;;;;;;;;;5070996;28;20037;-71
2023/10/12 13:58:39;;;;;;;8.48;1.83;;;;;;;;;;5070017;28;20642;-72
2023/10/12 14:01:13;;;;;;;10.93;1.98;;;;;;;;;;5069380;28;20516;-72
2023/10/12 14:03:41;;;;;;;18.80;3.00;;;;;;;;;;5086998;28;20123;-71
2023/10/12 14:06:07;;;;;;;11.40;1.77;;;;;;;;;;5071102;28;20040;-73
2023/10/12 14:08:40;;;;;;;7.18;2.00;;;;;;;;;;5071454;28;20037;-72
2023/10/12 14:11:06;;;;;;;6.43;1.75;;;;;;;;;;5068887;28;20397;-72
2023/10/12 14:13:33;;;;;;;9.20;1.70;;;;;;;;;;5071694;28;20065;-72
2023/10/12 14:15:59;;;;;;;11.80;1.55;;;;;;;;;;5068602;28;20045;-72
2023/10/12 14:18:28;;;;;;;11.45;2.05;;;;;;;;;;5070969;28;20032;-71
2023/10/12 14:20:55;;;;;;;9.52;1.75;;;;;;;;;;5068299;28;20029;-71
2023/10/12 14:23:26;;;;;;;73.22;37.35;;;;;;;;;;5073146;28;20029;-76
2023/10/12 14:25:54;;;;;;;15.50;3.67;;;;;;;;;;5071821;28;20052;-76
2023/10/12 14:28:21;;;;;;;20.83;7.10;;;;;;;;;;5071192;28;20098;-76
2023/10/12 14:30:50;;;;;;;7.13;2.78;;;;;;;;;;5069262;28;20595;-76
2023/10/12 14:33:19;;;;;;;12.73;2.60;;;;;;;;;;5068125;28;20029;-74
2023/10/12 14:35:46;;;;;;;10.95;1.73;;;;;;;;;;5066447;28;20044;-75
2023/10/12 14:38:17;;;;;;;13.32;1.88;;;;;;;;;;5068349;28;20481;-73
2023/10/12 14:40:43;;;;;;;7.68;1.83;;;;;;;;;;5068910;28;20113;-74
2023/10/12 14:43:11;;;;;;;10.02;2.17;;;;;;;;;;5084145;28;20067;-73
2023/10/12 14:45:44;;;;;;;9.35;1.52;;;;;;;;;;5068565;28;20489;-74
2023/10/12 14:48:12;;;;;;;15.38;2.17;;;;;;;;;;5071305;28;20028;-78
2023/10/12 14:50:43;;;;;;;9.00;1.88;;;;;;;;;;5069038;28;20497;-73
2023/10/12 14:53:09;;;;;;;12.23;1.98;;;;;;;;;;5071160;28;20036;-74
2023/10/12 14:55:36;;;;;;;9.52;2.00;;;;;;;;;;5065408;28;20040;-75
2023/10/12 14:58:02;;;;;;;13.15;1.85;;;;;;;;;;5070335;28;20028;-74
2023/10/12 15:00:29;;;;;;;7.30;1.75;;;;;;;;;;5068133;28;20029;-74
2023/10/12 15:02:57;;;;;;;8.80;1.70;;;;;;;;;;5068314;28;20046;-73
2023/10/12 15:05:27;;;;;;;6.85;1.55;;;;;;;;;;5085512;28;20040;-74
2023/10/12 15:07:55;;;;;;;8.93;1.65;;;;;;;;;;5069549;28;20028;-73
2023/10/12 15:10:21;;;;;;;8.88;1.58;;;;;;;;;;5068848;28;20378;-74
2023/10/12 15:12:50;;;;;;;14.68;1.63;;;;;;;;;;5069570;28;20033;-74
2023/10/12 15:15:20;;;;;;;14.10;2.85;;;;;;;;;;5068358;28;20071;-74
2023/10/12 15:17:46;;;;;;;7.32;1.88;;;;;;;;;;5069473;28;20036;-76
2023/10/12 15:20:15;;;;;;;10.85;2.28;;;;;;;;;;5070268;28;20024;-80
2023/10/12 15:22:44;;;;;;;6.80;1.20;;;;;;;;;;5058572;28;20060;-74
2023/10/12 15:25:11;;;;;;;9.43;1.30;;;;;;;;;;5069036;28;20052;-74
2023/10/12 15:27:37;;;;;;;7.80;1.75;;;;;;;;;;5071235;28;20378;-75
2023/10/12 15:30:04;;;;;;;14.77;1.88;;;;;;;;;;5066955;28;20041;-74
2023/10/12 15:32:31;;;;;;;14.00;1.90;;;;;;;;;;5061281;28;20899;-75
2023/10/12 15:34:57;;;;;;;8.77;1.98;;;;;;;;;;5066810;28;20040;-75
2023/10/12 15:37:24;;;;;;;6.85;1.50;;;;;;;;;;5070965;28;20028;-77
2023/10/12 15:39:53;;;;;;;8.02;1.88;;;;;;;;;;5069671;28;20052;-76
2023/10/12 15:42:20;;;;;;;6.60;1.90;;;;;;;;;;5065853;28;20381;-75
2023/10/12 15:44:49;;;;;;;14.90;1.98;;;;;;;;;;5069714;28;20029;-75
2023/10/12 15:47:16;;;;;;;10.55;2.38;;;;;;;;;;5067364;28;22203;-78
2023/10/12 15:49:42;;;;;;;12.23;2.95;;;;;;;;;;5069585;28;20021;-79
2023/10/12 15:52:08;;;;;;;10.70;2.40;;;;;;;;;;5068871;28;20485;-78
2023/10/12 15:54:34;;;;;;;14.15;2.28;;;;;;;;;;5067320;28;20988;-78
2023/10/12 15:57:00;;;;;;;15.88;6.18;;;;;;;;;;5053418;28;20036;-78
2023/10/12 15:59:27;;;;;;;13.27;2.25;;;;;;;;;;5070589;28;20044;-80
2023/10/12 16:01:54;;;;;;;9.57;2.33;;;;;;;;;;5066365;28;20067;-79
2023/10/12 16:04:21;;;;;;;10.98;2.10;;;;;;;;;;5084339;28;20767;-78
2023/10/12 16:06:47;;;;;;;7.95;2.55;;;;;;;;;;5067027;28;20032;-78
2023/10/12 16:09:20;;;;;;;9.40;1.92;;;;;;;;;;5069511;28;20032;-79
2023/10/12 16:11:49;;;;;;;10.32;2.10;;;;;;;;;;5070307;28;20036;-78
2023/10/12 16:14:18;;;;;;;6.88;1.63;;;;;;;;;;5085580;28;20032;-78
2023/10/12 16:16:44;;;;;;;15.60;2.90;;;;;;;;;;5065852;28;20538;-77
2023/10/12 16:19:12;;;;;;;14.25;2.28;;;;;;;;;;5070818;28;20079;-79
2023/10/12 16:21:38;;;;;;;6.53;1.42;;;;;;;;;;5064552;28;20029;-77
2023/10/12 16:24:06;;;;;;;9.98;2.08;;;;;;;;;;5069921;28;20032;-78
2023/10/12 16:26:32;;;;;;;9.90;2.55;;;;;;;;;;5071765;28;20115;-77